sensor_id;sensor_type;location;lat;lon;timestamp;temperature;humidity
11446;DHT22;5779;64.178;15.432;2024-01-25T00:00:51;-0.30;99.90
11446;DHT22;5779;64.178;15.432;2024-01-25T00:03:40;-0.30;99.90
11446;DHT22;5779;64.178;15.432;2024-01-25T00:06:26;-0.40;99.90
11446;DHT22;5779;64.178;15.432;2024-01-25T00:09:14;-0.50;99.90
11446;DHT22;5779;64.178;15.432;2024-01-25T00:12:01;-0.60;99.90
11446;DHT22;5779;64.178;15.432;2024-01-25T00:14:47;-0.80;99.90
11446;DHT22;5779;64.178;15.432;2024-01-25T00:17:33;-0.80;99.90
11446;DHT22;5779;64.178;15.432;2024-01-25T00:20:20;-0.70;99.90
11446;DHT22;5779;64.178;15.432;2024-01-25T00:23:07;-0.70;99.90
11446;DHT22;5779;64.178;15.432;2024-01-25T00:25:55;-0.70;99.90
11446;DHT22;5779;64.178;15.432;2024-01-25T00:28:45;-0.60;99.90
11446;DHT22;5779;64.178;15.432;2024-01-25T00:31:31;-0.70;99.90
11446;DHT22;5779;64.178;15.432;2024-01-25T00:34:18;-0.70;99.90
11446;DHT22;5779;64.178;15.432;2024-01-25T00:37:05;-0.50;99.90
11446;DHT22;5779;64.178;15.432;2024-01-25T00:39:52;-0.60;99.90
11446;DHT22;5779;64.178;15.432;2024-01-25T00:42:43;-1.20;99.90
11446;DHT22;5779;64.178;15.432;2024-01-25T00:45:31;-1.30;99.90
11446;DHT22;5779;64.178;15.432;2024-01-25T00:48:18;-1.40;99.90
11446;DHT22;5779;64.178;15.432;2024-01-25T00:51:07;-1.70;99.90
11446;DHT22;5779;64.178;15.432;2024-01-25T00:53:54;-1.60;99.90
11446;DHT22;5779;64.178;15.432;2024-01-25T00:56:42;-1.50;99.90
11446;DHT22;5779;64.178;15.432;2024-01-25T00:59:30;-1.50;99.90
11446;DHT22;5779;64.178;15.432;2024-01-25T01:02:17;-1.50;99.90
11446;DHT22;5779;64.178;15.432;2024-01-25T01:05:07;-1.50;99.90
11446;DHT22;5779;64.178;15.432;2024-01-25T01:07:54;-1.30;99.90
11446;DHT22;5779;64.178;15.432;2024-01-25T01:10:41;-1.20;99.90
11446;DHT22;5779;64.178;15.432;2024-01-25T01:13:27;-0.90;99.90
11446;DHT22;5779;64.178;15.432;2024-01-25T01:16:15;-0.90;99.90
11446;DHT22;5779;64.178;15.432;2024-01-25T01:19:02;-1.00;99.90
11446;DHT22;5779;64.178;15.432;2024-01-25T01:21:53;-1.00;99.90
11446;DHT22;5779;64.178;15.432;2024-01-25T01:24:40;-1.00;99.90
11446;DHT22;5779;64.178;15.432;2024-01-25T01:27:27;-1.00;99.90
11446;DHT22;5779;64.178;15.432;2024-01-25T01:30:13;-1.00;99.90
11446;DHT22;5779;64.178;15.432;2024-01-25T01:33:01;-1.10;99.90
11446;DHT22;5779;64.178;15.432;2024-01-25T01:35:48;-1.20;99.90
11446;DHT22;5779;64.178;15.432;2024-01-25T01:38:34;-1.40;99.90
11446;DHT22;5779;64.178;15.432;2024-01-25T01:41:21;-1.60;99.90
11446;DHT22;5779;64.178;15.432;2024-01-25T01:44:07;-1.60;99.90
11446;DHT22;5779;64.178;15.432;2024-01-25T01:46:54;-1.60;99.90
11446;DHT22;5779;64.178;15.432;2024-01-25T01:49:42;-1.50;99.90
11446;DHT22;5779;64.178;15.432;2024-01-25T01:52:31;-1.50;99.90
11446;DHT22;5779;64.178;15.432;2024-01-25T01:55:17;-1.60;99.90
11446;DHT22;5779;64.178;15.432;2024-01-25T01:58:04;-1.50;99.90
11446;DHT22;5779;64.178;15.432;2024-01-25T02:00:51;-1.50;99.90
11446;DHT22;5779;64.178;15.432;2024-01-25T02:03:45;-1.40;99.90
11446;DHT22;5779;64.178;15.432;2024-01-25T02:06:33;-1.50;99.90
11446;DHT22;5779;64.178;15.432;2024-01-25T02:09:20;-1.40;99.90
11446;DHT22;5779;64.178;15.432;2024-01-25T02:12:07;-1.50;99.90
11446;DHT22;5779;64.178;15.432;2024-01-25T02:14:53;-1.50;99.90
11446;DHT22;5779;64.178;15.432;2024-01-25T02:17:40;-1.50;99.90
11446;DHT22;5779;64.178;15.432;2024-01-25T02:20:27;-1.70;99.90
11446;DHT22;5779;64.178;15.432;2024-01-25T02:23:15;-1.80;99.90
11446;DHT22;5779;64.178;15.432;2024-01-25T02:26:02;-1.90;99.90
11446;DHT22;5779;64.178;15.432;2024-01-25T02:28:48;-2.10;99.90
11446;DHT22;5779;64.178;15.432;2024-01-25T02:31:35;-2.10;99.90
11446;DHT22;5779;64.178;15.432;2024-01-25T02:34:22;-2.30;99.90
11446;DHT22;5779;64.178;15.432;2024-01-25T02:37:08;-2.20;99.90
11446;DHT22;5779;64.178;15.432;2024-01-25T02:39:58;-2.20;99.90
11446;DHT22;5779;64.178;15.432;2024-01-25T02:42:44;-2.10;99.90
11446;DHT22;5779;64.178;15.432;2024-01-25T02:45:31;-1.90;99.90
11446;DHT22;5779;64.178;15.432;2024-01-25T02:48:17;-1.80;99.90
11446;DHT22;5779;64.178;15.432;2024-01-25T02:51:05;-1.60;99.90
11446;DHT22;5779;64.178;15.432;2024-01-25T02:53:51;-1.50;99.90
11446;DHT22;5779;64.178;15.432;2024-01-25T02:56:40;-1.50;99.90
11446;DHT22;5779;64.178;15.432;2024-01-25T02:59:26;-1.50;99.90
11446;DHT22;5779;64.178;15.432;2024-01-25T03:02:13;-1.50;99.90
11446;DHT22;5779;64.178;15.432;2024-01-25T03:05:01;-1.40;99.90
11446;DHT22;5779;64.178;15.432;2024-01-25T03:07:48;-1.30;99.90
11446;DHT22;5779;64.178;15.432;2024-01-25T03:10:35;-1.30;99.90
11446;DHT22;5779;64.178;15.432;2024-01-25T03:13:23;-1.30;99.90
11446;DHT22;5779;64.178;15.432;2024-01-25T03:16:10;-1.90;99.90
11446;DHT22;5779;64.178;15.432;2024-01-25T03:18:57;-2.20;99.90
11446;DHT22;5779;64.178;15.432;2024-01-25T03:21:43;-2.10;99.90
11446;DHT22;5779;64.178;15.432;2024-01-25T03:24:30;-2.00;99.90
11446;DHT22;5779;64.178;15.432;2024-01-25T03:27:16;-1.80;99.90
11446;DHT22;5779;64.178;15.432;2024-01-25T03:30:06;-2.00;99.90
11446;DHT22;5779;64.178;15.432;2024-01-25T03:32:53;-2.00;99.90
11446;DHT22;5779;64.178;15.432;2024-01-25T03:35:39;-2.20;99.90
11446;DHT22;5779;64.178;15.432;2024-01-25T03:38:26;-2.30;99.90
11446;DHT22;5779;64.178;15.432;2024-01-25T03:41:12;-2.60;99.90
11446;DHT22;5779;64.178;15.432;2024-01-25T03:43:59;-2.80;99.90
11446;DHT22;5779;64.178;15.432;2024-01-25T03:46:47;-2.80;99.90
11446;DHT22;5779;64.178;15.432;2024-01-25T03:49:34;-2.90;99.90
11446;DHT22;5779;64.178;15.432;2024-01-25T03:52:20;-2.70;99.90
11446;DHT22;5779;64.178;15.432;2024-01-25T03:55:07;-2.60;99.90
11446;DHT22;5779;64.178;15.432;2024-01-25T03:57:56;-2.60;99.90
11446;DHT22;5779;64.178;15.432;2024-01-25T04:00:43;-2.70;99.90
11446;DHT22;5779;64.178;15.432;2024-01-25T04:03:32;-2.80;99.90
11446;DHT22;5779;64.178;15.432;2024-01-25T04:06:19;-2.80;99.90
11446;DHT22;5779;64.178;15.432;2024-01-25T04:09:06;-3.00;99.90
11446;DHT22;5779;64.178;15.432;2024-01-25T04:11:52;-3.10;99.90
11446;DHT22;5779;64.178;15.432;2024-01-25T04:14:39;-3.20;99.90
11446;DHT22;5779;64.178;15.432;2024-01-25T04:17:25;-3.10;99.90
11446;DHT22;5779;64.178;15.432;2024-01-25T04:20:15;-2.80;99.90
11446;DHT22;5779;64.178;15.432;2024-01-25T04:23:02;-2.70;99.90
11446;DHT22;5779;64.178;15.432;2024-01-25T04:25:49;-2.90;99.90
11446;DHT22;5779;64.178;15.432;2024-01-25T04:28:36;-3.00;99.90
11446;DHT22;5779;64.178;15.432;2024-01-25T04:31:22;-3.00;99.90
11446;DHT22;5779;64.178;15.432;2024-01-25T04:34:09;-2.80;99.90
11446;DHT22;5779;64.178;15.432;2024-01-25T04:36:57;-2.70;99.90
11446;DHT22;5779;64.178;15.432;2024-01-25T04:39:44;-2.60;99.90
11446;DHT22;5779;64.178;15.432;2024-01-25T04:42:31;-3.00;99.90
11446;DHT22;5779;64.178;15.432;2024-01-25T04:45:17;-3.10;99.90
11446;DHT22;5779;64.178;15.432;2024-01-25T04:48:04;-3.10;99.90
11446;DHT22;5779;64.178;15.432;2024-01-25T04:50:51;-3.00;99.90
11446;DHT22;5779;64.178;15.432;2024-01-25T04:53:39;-3.10;99.90
11446;DHT22;5779;64.178;15.432;2024-01-25T04:56:26;-2.90;99.90
11446;DHT22;5779;64.178;15.432;2024-01-25T04:59:14;-2.70;99.90
11446;DHT22;5779;64.178;15.432;2024-01-25T05:02:00;-2.60;99.90
11446;DHT22;5779;64.178;15.432;2024-01-25T05:04:49;-2.50;99.90
11446;DHT22;5779;64.178;15.432;2024-01-25T05:07:37;-2.40;99.90
11446;DHT22;5779;64.178;15.432;2024-01-25T05:10:25;-2.40;99.90
11446;DHT22;5779;64.178;15.432;2024-01-25T05:13:12;-2.30;99.90
11446;DHT22;5779;64.178;15.432;2024-01-25T05:15:59;-2.30;99.90
11446;DHT22;5779;64.178;15.432;2024-01-25T05:18:45;-2.20;99.90
11446;DHT22;5779;64.178;15.432;2024-01-25T05:21:35;-2.20;99.90
11446;DHT22;5779;64.178;15.432;2024-01-25T05:24:21;-2.20;99.90
11446;DHT22;5779;64.178;15.432;2024-01-25T05:27:09;-2.40;99.90
11446;DHT22;5779;64.178;15.432;2024-01-25T05:29:58;-2.40;99.90
11446;DHT22;5779;64.178;15.432;2024-01-25T05:32:44;-2.40;99.90
11446;DHT22;5779;64.178;15.432;2024-01-25T05:35:33;-2.80;99.90
11446;DHT22;5779;64.178;15.432;2024-01-25T05:38:20;-2.80;99.90
11446;DHT22;5779;64.178;15.432;2024-01-25T05:41:07;-2.70;99.90
11446;DHT22;5779;64.178;15.432;2024-01-25T05:43:54;-2.60;99.90
11446;DHT22;5779;64.178;15.432;2024-01-25T05:46:41;-2.50;99.90
11446;DHT22;5779;64.178;15.432;2024-01-25T05:49:28;-2.40;99.90
11446;DHT22;5779;64.178;15.432;2024-01-25T05:52:14;-2.30;99.90
11446;DHT22;5779;64.178;15.432;2024-01-25T05:55:01;-2.40;99.90
11446;DHT22;5779;64.178;15.432;2024-01-25T05:57:48;-2.80;99.90
11446;DHT22;5779;64.178;15.432;2024-01-25T06:00:36;-3.00;99.90
11446;DHT22;5779;64.178;15.432;2024-01-25T06:03:27;-2.90;99.90
11446;DHT22;5779;64.178;15.432;2024-01-25T06:06:13;-2.60;99.90
11446;DHT22;5779;64.178;15.432;2024-01-25T06:09:00;-2.30;99.90
11446;DHT22;5779;64.178;15.432;2024-01-25T06:11:47;-2.20;99.90
11446;DHT22;5779;64.178;15.432;2024-01-25T06:14:33;-2.40;99.90
11446;DHT22;5779;64.178;15.432;2024-01-25T06:17:21;-2.80;99.90
11446;DHT22;5779;64.178;15.432;2024-01-25T06:20:09;-3.00;99.90
11446;DHT22;5779;64.178;15.432;2024-01-25T06:22:58;-3.00;99.90
11446;DHT22;5779;64.178;15.432;2024-01-25T06:25:44;-3.00;99.90
11446;DHT22;5779;64.178;15.432;2024-01-25T06:28:33;-2.80;99.90
11446;DHT22;5779;64.178;15.432;2024-01-25T06:31:20;-2.70;99.90
11446;DHT22;5779;64.178;15.432;2024-01-25T06:34:08;-2.60;99.90
11446;DHT22;5779;64.178;15.432;2024-01-25T06:36:54;-2.60;99.90
11446;DHT22;5779;64.178;15.432;2024-01-25T06:39:41;-2.60;99.90
11446;DHT22;5779;64.178;15.432;2024-01-25T06:42:27;-2.60;99.90
11446;DHT22;5779;64.178;15.432;2024-01-25T06:45:14;-2.50;99.90
11446;DHT22;5779;64.178;15.432;2024-01-25T06:48:01;-2.40;99.90
11446;DHT22;5779;64.178;15.432;2024-01-25T06:50:49;-2.40;99.90
11446;DHT22;5779;64.178;15.432;2024-01-25T06:53:36;-2.40;99.90
11446;DHT22;5779;64.178;15.432;2024-01-25T06:56:22;-2.30;99.90
11446;DHT22;5779;64.178;15.432;2024-01-25T06:59:09;-2.30;99.90
11446;DHT22;5779;64.178;15.432;2024-01-25T07:01:55;-2.40;99.90
11446;DHT22;5779;64.178;15.432;2024-01-25T07:04:42;-2.40;99.90
11446;DHT22;5779;64.178;15.432;2024-01-25T07:07:29;-2.50;99.90
11446;DHT22;5779;64.178;15.432;2024-01-25T07:10:17;-2.90;99.90
11446;DHT22;5779;64.178;15.432;2024-01-25T07:13:03;-2.90;99.90
11446;DHT22;5779;64.178;15.432;2024-01-25T07:15:50;-2.80;99.90
11446;DHT22;5779;64.178;15.432;2024-01-25T07:18:36;-2.60;99.90
11446;DHT22;5779;64.178;15.432;2024-01-25T07:21:23;-2.40;99.90
11446;DHT22;5779;64.178;15.432;2024-01-25T07:24:11;-2.30;99.90
11446;DHT22;5779;64.178;15.432;2024-01-25T07:26:57;-2.20;99.90
11446;DHT22;5779;64.178;15.432;2024-01-25T07:29:44;-2.20;99.90
11446;DHT22;5779;64.178;15.432;2024-01-25T07:32:31;-2.40;99.90
11446;DHT22;5779;64.178;15.432;2024-01-25T07:35:20;-2.40;99.90
11446;DHT22;5779;64.178;15.432;2024-01-25T07:38:08;-2.40;99.90
11446;DHT22;5779;64.178;15.432;2024-01-25T07:40:56;-2.50;99.90
11446;DHT22;5779;64.178;15.432;2024-01-25T07:43:45;-2.50;99.90
11446;DHT22;5779;64.178;15.432;2024-01-25T07:46:32;-2.60;99.90
11446;DHT22;5779;64.178;15.432;2024-01-25T07:49:19;-2.70;99.90
11446;DHT22;5779;64.178;15.432;2024-01-25T07:52:05;-2.70;99.90
11446;DHT22;5779;64.178;15.432;2024-01-25T07:54:52;-2.70;99.90
11446;DHT22;5779;64.178;15.432;2024-01-25T07:57:42;-2.70;99.90
11446;DHT22;5779;64.178;15.432;2024-01-25T08:00:29;-2.70;99.90
11446;DHT22;5779;64.178;15.432;2024-01-25T08:03:16;-2.70;99.90
11446;DHT22;5779;64.178;15.432;2024-01-25T08:06:02;-2.80;99.90
11446;DHT22;5779;64.178;15.432;2024-01-25T08:08:49;-2.80;99.90
11446;DHT22;5779;64.178;15.432;2024-01-25T08:11:36;-2.90;99.90
11446;DHT22;5779;64.178;15.432;2024-01-25T08:14:24;-2.80;99.90
11446;DHT22;5779;64.178;15.432;2024-01-25T08:17:11;-2.80;99.90
11446;DHT22;5779;64.178;15.432;2024-01-25T08:19:58;-2.80;99.90
11446;DHT22;5779;64.178;15.432;2024-01-25T08:22:44;-2.80;99.90
11446;DHT22;5779;64.178;15.432;2024-01-25T08:25:31;-2.80;99.90
11446;DHT22;5779;64.178;15.432;2024-01-25T08:28:18;-2.90;99.90
11446;DHT22;5779;64.178;15.432;2024-01-25T08:31:08;-2.90;99.90
11446;DHT22;5779;64.178;15.432;2024-01-25T08:33:55;-2.90;99.90
11446;DHT22;5779;64.178;15.432;2024-01-25T08:36:42;-3.10;99.90
11446;DHT22;5779;64.178;15.432;2024-01-25T08:39:28;-3.20;99.90
11446;DHT22;5779;64.178;15.432;2024-01-25T08:42:15;-3.10;99.90
11446;DHT22;5779;64.178;15.432;2024-01-25T08:45:02;-3.00;99.90
11446;DHT22;5779;64.178;15.432;2024-01-25T08:47:52;-3.00;99.90
11446;DHT22;5779;64.178;15.432;2024-01-25T08:50:39;-2.90;99.90
11446;DHT22;5779;64.178;15.432;2024-01-25T08:53:25;-2.80;99.90
11446;DHT22;5779;64.178;15.432;2024-01-25T08:56:12;-2.90;99.90
11446;DHT22;5779;64.178;15.432;2024-01-25T08:58:59;-3.00;99.90
11446;DHT22;5779;64.178;15.432;2024-01-25T09:01:45;-3.00;99.90
11446;DHT22;5779;64.178;15.432;2024-01-25T09:04:36;-3.20;99.90
11446;DHT22;5779;64.178;15.432;2024-01-25T09:07:22;-3.10;99.90
11446;DHT22;5779;64.178;15.432;2024-01-25T09:10:09;-3.00;99.90
11446;DHT22;5779;64.178;15.432;2024-01-25T09:12:57;-3.00;99.90
11446;DHT22;5779;64.178;15.432;2024-01-25T09:15:45;-2.80;99.90
11446;DHT22;5779;64.178;15.432;2024-01-25T09:18:32;-2.80;99.90
11446;DHT22;5779;64.178;15.432;2024-01-25T09:21:20;-2.70;99.90
11446;DHT22;5779;64.178;15.432;2024-01-25T09:24:06;-2.60;99.90
11446;DHT22;5779;64.178;15.432;2024-01-25T09:26:53;-2.70;99.90
11446;DHT22;5779;64.178;15.432;2024-01-25T09:29:41;-2.50;99.90
11446;DHT22;5779;64.178;15.432;2024-01-25T09:32:27;-2.50;99.90
11446;DHT22;5779;64.178;15.432;2024-01-25T09:35:14;-2.50;99.90
11446;DHT22;5779;64.178;15.432;2024-01-25T09:38:02;-2.40;99.90
11446;DHT22;5779;64.178;15.432;2024-01-25T09:40:49;-2.30;99.90
11446;DHT22;5779;64.178;15.432;2024-01-25T09:43:36;-2.40;99.90
11446;DHT22;5779;64.178;15.432;2024-01-25T09:46:24;-2.40;99.90
11446;DHT22;5779;64.178;15.432;2024-01-25T09:49:11;-2.40;99.90
11446;DHT22;5779;64.178;15.432;2024-01-25T09:51:58;-2.30;99.90
11446;DHT22;5779;64.178;15.432;2024-01-25T09:54:50;-2.30;99.90
11446;DHT22;5779;64.178;15.432;2024-01-25T09:57:41;-2.40;99.90
11446;DHT22;5779;64.178;15.432;2024-01-25T10:00:31;-2.50;99.90
11446;DHT22;5779;64.178;15.432;2024-01-25T10:03:18;-2.50;99.90
11446;DHT22;5779;64.178;15.432;2024-01-25T10:06:05;-2.40;99.90
11446;DHT22;5779;64.178;15.432;2024-01-25T10:08:53;-2.30;99.90
11446;DHT22;5779;64.178;15.432;2024-01-25T10:11:41;-2.20;99.90
11446;DHT22;5779;64.178;15.432;2024-01-25T10:14:27;-2.50;99.90
11446;DHT22;5779;64.178;15.432;2024-01-25T10:17:14;-2.60;99.90
11446;DHT22;5779;64.178;15.432;2024-01-25T10:20:00;-2.80;99.90
11446;DHT22;5779;64.178;15.432;2024-01-25T10:22:48;-3.10;99.90
11446;DHT22;5779;64.178;15.432;2024-01-25T10:25:34;-2.90;99.90
11446;DHT22;5779;64.178;15.432;2024-01-25T10:28:24;-2.50;99.90
11446;DHT22;5779;64.178;15.432;2024-01-25T10:31:13;-2.30;99.90
11446;DHT22;5779;64.178;15.432;2024-01-25T10:34:00;-2.10;99.90
11446;DHT22;5779;64.178;15.432;2024-01-25T10:36:47;-2.00;99.90
11446;DHT22;5779;64.178;15.432;2024-01-25T10:39:34;-2.00;99.90
11446;DHT22;5779;64.178;15.432;2024-01-25T10:42:21;-1.90;99.90
11446;DHT22;5779;64.178;15.432;2024-01-25T10:45:10;-1.90;99.90
11446;DHT22;5779;64.178;15.432;2024-01-25T10:47:58;-1.90;99.90
11446;DHT22;5779;64.178;15.432;2024-01-25T10:50:46;-1.80;99.90
11446;DHT22;5779;64.178;15.432;2024-01-25T10:53:34;-1.80;99.90
11446;DHT22;5779;64.178;15.432;2024-01-25T10:56:24;-1.60;99.90
11446;DHT22;5779;64.178;15.432;2024-01-25T10:59:11;-1.60;99.90
11446;DHT22;5779;64.178;15.432;2024-01-25T11:02:00;-1.60;99.90
11446;DHT22;5779;64.178;15.432;2024-01-25T11:04:53;-1.60;99.90
11446;DHT22;5779;64.178;15.432;2024-01-25T11:07:44;-1.60;99.90
11446;DHT22;5779;64.178;15.432;2024-01-25T11:10:35;-1.70;99.90
11446;DHT22;5779;64.178;15.432;2024-01-25T11:13:25;-1.60;99.90
11446;DHT22;5779;64.178;15.432;2024-01-25T11:16:13;-1.70;99.90
11446;DHT22;5779;64.178;15.432;2024-01-25T11:19:04;-1.70;99.90
11446;DHT22;5779;64.178;15.432;2024-01-25T11:21:52;-1.60;99.90
11446;DHT22;5779;64.178;15.432;2024-01-25T11:24:39;-1.90;99.90
11446;DHT22;5779;64.178;15.432;2024-01-25T11:27:27;-1.90;99.90
11446;DHT22;5779;64.178;15.432;2024-01-25T11:30:14;-2.00;99.90
11446;DHT22;5779;64.178;15.432;2024-01-25T11:33:03;-2.10;99.90
11446;DHT22;5779;64.178;15.432;2024-01-25T11:35:56;-2.20;99.90
11446;DHT22;5779;64.178;15.432;2024-01-25T11:38:42;-2.20;99.90
11446;DHT22;5779;64.178;15.432;2024-01-25T11:41:30;-2.30;99.90
11446;DHT22;5779;64.178;15.432;2024-01-25T11:44:16;-2.10;99.90
11446;DHT22;5779;64.178;15.432;2024-01-25T11:47:04;-1.90;99.90
11446;DHT22;5779;64.178;15.432;2024-01-25T11:49:50;-1.80;99.90
11446;DHT22;5779;64.178;15.432;2024-01-25T11:52:38;-1.60;99.90
11446;DHT22;5779;64.178;15.432;2024-01-25T11:55:25;-1.50;99.90
11446;DHT22;5779;64.178;15.432;2024-01-25T11:58:12;-1.50;99.90
11446;DHT22;5779;64.178;15.432;2024-01-25T12:00:59;-1.60;99.90
11446;DHT22;5779;64.178;15.432;2024-01-25T12:03:48;-1.60;99.90
11446;DHT22;5779;64.178;15.432;2024-01-25T12:06:34;-1.70;99.90
11446;DHT22;5779;64.178;15.432;2024-01-25T12:09:22;-1.50;99.90
11446;DHT22;5779;64.178;15.432;2024-01-25T12:12:09;-1.50;99.90
11446;DHT22;5779;64.178;15.432;2024-01-25T12:14:58;-1.40;99.90
11446;DHT22;5779;64.178;15.432;2024-01-25T12:17:45;-1.30;99.90
11446;DHT22;5779;64.178;15.432;2024-01-25T12:20:32;-1.30;99.90
11446;DHT22;5779;64.178;15.432;2024-01-25T12:23:18;-1.20;99.90
11446;DHT22;5779;64.178;15.432;2024-01-25T12:26:08;-1.10;99.90
11446;DHT22;5779;64.178;15.432;2024-01-25T12:28:55;-1.20;99.90
11446;DHT22;5779;64.178;15.432;2024-01-25T12:31:41;-1.20;99.90
11446;DHT22;5779;64.178;15.432;2024-01-25T12:34:29;-1.20;99.90
11446;DHT22;5779;64.178;15.432;2024-01-25T12:37:15;-1.10;99.90
11446;DHT22;5779;64.178;15.432;2024-01-25T12:40:02;-1.10;99.90
11446;DHT22;5779;64.178;15.432;2024-01-25T12:42:50;-1.10;99.90
11446;DHT22;5779;64.178;15.432;2024-01-25T12:45:36;-1.00;99.90
11446;DHT22;5779;64.178;15.432;2024-01-25T12:48:23;-1.00;99.90
11446;DHT22;5779;64.178;15.432;2024-01-25T12:51:09;-1.00;99.90
11446;DHT22;5779;64.178;15.432;2024-01-25T12:53:56;-1.10;99.90
11446;DHT22;5779;64.178;15.432;2024-01-25T12:56:43;-1.30;99.90
11446;DHT22;5779;64.178;15.432;2024-01-25T12:59:31;-1.40;99.90
11446;DHT22;5779;64.178;15.432;2024-01-25T13:02:18;-1.50;99.90
11446;DHT22;5779;64.178;15.432;2024-01-25T13:05:07;-1.90;99.90
11446;DHT22;5779;64.178;15.432;2024-01-25T13:07:59;-2.10;99.90
11446;DHT22;5779;64.178;15.432;2024-01-25T13:10:45;-2.20;99.90
11446;DHT22;5779;64.178;15.432;2024-01-25T13:13:32;-2.50;99.90
11446;DHT22;5779;64.178;15.432;2024-01-25T13:16:20;-2.60;99.90
11446;DHT22;5779;64.178;15.432;2024-01-25T13:19:07;-2.60;99.90
11446;DHT22;5779;64.178;15.432;2024-01-25T13:21:55;-2.50;99.90
11446;DHT22;5779;64.178;15.432;2024-01-25T13:24:42;-2.30;99.90
11446;DHT22;5779;64.178;15.432;2024-01-25T13:27:29;-2.10;99.90
11446;DHT22;5779;64.178;15.432;2024-01-25T13:30:15;-1.90;99.90
11446;DHT22;5779;64.178;15.432;2024-01-25T13:33:04;-1.80;99.90
11446;DHT22;5779;64.178;15.432;2024-01-25T13:35:51;-1.70;99.90
11446;DHT22;5779;64.178;15.432;2024-01-25T13:38:37;-1.60;99.90
11446;DHT22;5779;64.178;15.432;2024-01-25T13:41:24;-1.50;99.90
11446;DHT22;5779;64.178;15.432;2024-01-25T13:44:11;-1.50;99.90
11446;DHT22;5779;64.178;15.432;2024-01-25T13:46:57;-1.50;99.90
11446;DHT22;5779;64.178;15.432;2024-01-25T13:49:46;-1.60;99.90
11446;DHT22;5779;64.178;15.432;2024-01-25T13:52:32;-1.60;99.90
11446;DHT22;5779;64.178;15.432;2024-01-25T13:55:19;-1.70;99.90
11446;DHT22;5779;64.178;15.432;2024-01-25T13:58:06;-2.00;99.90
11446;DHT22;5779;64.178;15.432;2024-01-25T14:00:53;-2.20;99.90
11446;DHT22;5779;64.178;15.432;2024-01-25T14:03:44;-2.20;99.90
11446;DHT22;5779;64.178;15.432;2024-01-25T14:06:35;-2.30;99.90
11446;DHT22;5779;64.178;15.432;2024-01-25T14:09:24;-2.50;99.90
11446;DHT22;5779;64.178;15.432;2024-01-25T14:12:12;-2.50;99.90
11446;DHT22;5779;64.178;15.432;2024-01-25T14:14:58;-2.40;99.90
11446;DHT22;5779;64.178;15.432;2024-01-25T14:17:45;-2.40;99.90
11446;DHT22;5779;64.178;15.432;2024-01-25T14:20:31;-2.30;99.90
11446;DHT22;5779;64.178;15.432;2024-01-25T14:23:20;-2.20;99.90
11446;DHT22;5779;64.178;15.432;2024-01-25T14:26:07;-2.20;99.90
11446;DHT22;5779;64.178;15.432;2024-01-25T14:28:54;-2.50;99.90
11446;DHT22;5779;64.178;15.432;2024-01-25T14:31:40;-2.90;99.90
11446;DHT22;5779;64.178;15.432;2024-01-25T14:34:27;-2.90;99.90
11446;DHT22;5779;64.178;15.432;2024-01-25T14:37:13;-2.70;99.90
11446;DHT22;5779;64.178;15.432;2024-01-25T14:40:01;-2.60;99.90
11446;DHT22;5779;64.178;15.432;2024-01-25T14:42:48;-2.60;99.90
11446;DHT22;5779;64.178;15.432;2024-01-25T14:45:34;-2.40;99.90
11446;DHT22;5779;64.178;15.432;2024-01-25T14:48:22;-2.40;99.90
11446;DHT22;5779;64.178;15.432;2024-01-25T14:51:09;-2.30;99.90
11446;DHT22;5779;64.178;15.432;2024-01-25T14:53:58;-2.30;99.90
11446;DHT22;5779;64.178;15.432;2024-01-25T14:56:49;-2.40;99.90
11446;DHT22;5779;64.178;15.432;2024-01-25T14:59:42;-2.40;99.90
11446;DHT22;5779;64.178;15.432;2024-01-25T15:02:28;-2.40;99.90
11446;DHT22;5779;64.178;15.432;2024-01-25T15:05:17;-2.40;99.90
11446;DHT22;5779;64.178;15.432;2024-01-25T15:08:04;-2.40;99.90
11446;DHT22;5779;64.178;15.432;2024-01-25T15:10:51;-2.40;99.90
11446;DHT22;5779;64.178;15.432;2024-01-25T15:13:39;-2.40;99.90
11446;DHT22;5779;64.178;15.432;2024-01-25T15:16:25;-2.40;99.90
11446;DHT22;5779;64.178;15.432;2024-01-25T15:19:13;-2.40;99.90
11446;DHT22;5779;64.178;15.432;2024-01-25T15:22:00;-2.40;99.90
11446;DHT22;5779;64.178;15.432;2024-01-25T15:24:46;-2.70;99.90
11446;DHT22;5779;64.178;15.432;2024-01-25T15:27:33;-2.90;99.90
11446;DHT22;5779;64.178;15.432;2024-01-25T15:30:21;-2.80;99.90
11446;DHT22;5779;64.178;15.432;2024-01-25T15:33:08;-3.00;99.90
11446;DHT22;5779;64.178;15.432;2024-01-25T15:35:54;-3.00;99.90
11446;DHT22;5779;64.178;15.432;2024-01-25T15:38:41;-3.00;99.90
11446;DHT22;5779;64.178;15.432;2024-01-25T15:41:28;-2.90;99.90
11446;DHT22;5779;64.178;15.432;2024-01-25T15:44:15;-2.90;99.90
11446;DHT22;5779;64.178;15.432;2024-01-25T15:47:04;-2.60;99.90
11446;DHT22;5779;64.178;15.432;2024-01-25T15:49:50;-2.60;99.90
11446;DHT22;5779;64.178;15.432;2024-01-25T15:52:37;-3.30;99.90
11446;DHT22;5779;64.178;15.432;2024-01-25T15:55:24;-3.30;99.90
11446;DHT22;5779;64.178;15.432;2024-01-25T15:58:10;-3.40;99.90
11446;DHT22;5779;64.178;15.432;2024-01-25T16:00:57;-3.50;99.90
11446;DHT22;5779;64.178;15.432;2024-01-25T16:03:46;-3.40;99.90
11446;DHT22;5779;64.178;15.432;2024-01-25T16:06:32;-3.30;99.90
11446;DHT22;5779;64.178;15.432;2024-01-25T16:09:19;-3.20;99.90
11446;DHT22;5779;64.178;15.432;2024-01-25T16:12:08;-3.00;99.90
11446;DHT22;5779;64.178;15.432;2024-01-25T16:14:54;-2.80;99.90
11446;DHT22;5779;64.178;15.432;2024-01-25T16:17:43;-2.70;99.90
11446;DHT22;5779;64.178;15.432;2024-01-25T16:20:31;-2.70;99.90
11446;DHT22;5779;64.178;15.432;2024-01-25T16:23:18;-2.60;99.90
11446;DHT22;5779;64.178;15.432;2024-01-25T16:26:04;-2.50;99.90
11446;DHT22;5779;64.178;15.432;2024-01-25T16:28:51;-2.40;99.90
11446;DHT22;5779;64.178;15.432;2024-01-25T16:31:38;-2.40;99.90
11446;DHT22;5779;64.178;15.432;2024-01-25T16:34:24;-2.50;99.90
11446;DHT22;5779;64.178;15.432;2024-01-25T16:37:14;-2.40;99.90
11446;DHT22;5779;64.178;15.432;2024-01-25T16:40:04;-2.30;99.90
11446;DHT22;5779;64.178;15.432;2024-01-25T16:42:57;-2.10;99.90
11446;DHT22;5779;64.178;15.432;2024-01-25T16:45:43;-2.10;99.90
11446;DHT22;5779;64.178;15.432;2024-01-25T16:48:30;-2.10;99.90
11446;DHT22;5779;64.178;15.432;2024-01-25T16:51:16;-2.10;99.90
11446;DHT22;5779;64.178;15.432;2024-01-25T16:54:04;-2.30;99.90
11446;DHT22;5779;64.178;15.432;2024-01-25T16:56:52;-2.20;99.90
11446;DHT22;5779;64.178;15.432;2024-01-25T16:59:38;-2.20;99.90
11446;DHT22;5779;64.178;15.432;2024-01-25T17:02:25;-2.20;99.90
11446;DHT22;5779;64.178;15.432;2024-01-25T17:05:13;-2.10;99.90
11446;DHT22;5779;64.178;15.432;2024-01-25T17:08:00;-2.10;99.90
11446;DHT22;5779;64.178;15.432;2024-01-25T17:10:48;-2.10;99.90
11446;DHT22;5779;64.178;15.432;2024-01-25T17:13:34;-2.10;99.90
11446;DHT22;5779;64.178;15.432;2024-01-25T17:16:21;-2.10;99.90
11446;DHT22;5779;64.178;15.432;2024-01-25T17:19:07;-2.10;99.90
11446;DHT22;5779;64.178;15.432;2024-01-25T17:21:54;-2.10;99.90
11446;DHT22;5779;64.178;15.432;2024-01-25T17:24:41;-2.10;99.90
11446;DHT22;5779;64.178;15.432;2024-01-25T17:27:28;-2.20;99.90
11446;DHT22;5779;64.178;15.432;2024-01-25T17:30:15;-2.20;99.90
11446;DHT22;5779;64.178;15.432;2024-01-25T17:33:03;-2.40;99.90
11446;DHT22;5779;64.178;15.432;2024-01-25T17:35:49;-3.10;99.90